sensor_id;sensor_type;location;lat;lon;timestamp;temperature;humidity
1429;DHT22;708;51.442;7.016;2023-07-29T00:01:02;20.10;99.90
1429;DHT22;708;51.442;7.016;2023-07-29T00:03:28;20.10;99.90
1429;DHT22;708;51.442;7.016;2023-07-29T00:05:57;20.10;99.90
1429;DHT22;708;51.442;7.016;2023-07-29T00:08:24;20.10;99.90
1429;DHT22;708;51.442;7.016;2023-07-29T00:10:51;20.10;99.90
1429;DHT22;708;51.442;7.016;2023-07-29T00:13:17;20.10;99.90
1429;DHT22;708;51.442;7.016;2023-07-29T00:15:46;20.00;99.90
1429;DHT22;708;51.442;7.016;2023-07-29T00:18:12;20.00;99.90
1429;DHT22;708;51.442;7.016;2023-07-29T00:20:39;20.10;99.90
1429;DHT22;708;51.442;7.016;2023-07-29T00:23:06;20.10;99.90
1429;DHT22;708;51.442;7.016;2023-07-29T00:25:33;20.10;99.90
1429;DHT22;708;51.442;7.016;2023-07-29T00:28:00;20.10;99.90
1429;DHT22;708;51.442;7.016;2023-07-29T00:30:27;20.10;99.90
1429;DHT22;708;51.442;7.016;2023-07-29T00:32:55;20.10;99.90
1429;DHT22;708;51.442;7.016;2023-07-29T00:35:21;20.10;99.90
1429;DHT22;708;51.442;7.016;2023-07-29T00:37:48;20.10;99.90
1429;DHT22;708;51.442;7.016;2023-07-29T00:40:20;20.10;99.90
1429;DHT22;708;51.442;7.016;2023-07-29T00:42:46;20.20;99.90
1429;DHT22;708;51.442;7.016;2023-07-29T00:45:13;20.20;99.90
1429;DHT22;708;51.442;7.016;2023-07-29T00:47:41;20.20;99.90
1429;DHT22;708;51.442;7.016;2023-07-29T00:50:11;20.20;99.90
1429;DHT22;708;51.442;7.016;2023-07-29T00:52:38;20.20;99.90
1429;DHT22;708;51.442;7.016;2023-07-29T00:55:05;20.20;99.90
1429;DHT22;708;51.442;7.016;2023-07-29T00:57:33;20.20;99.90
1429;DHT22;708;51.442;7.016;2023-07-29T01:00:01;20.20;99.90
1429;DHT22;708;51.442;7.016;2023-07-29T01:02:29;20.20;99.90
1429;DHT22;708;51.442;7.016;2023-07-29T01:04:58;20.10;99.90
1429;DHT22;708;51.442;7.016;2023-07-29T01:07:30;20.10;99.90
1429;DHT22;708;51.442;7.016;2023-07-29T01:10:02;20.10;99.90
1429;DHT22;708;51.442;7.016;2023-07-29T01:12:36;20.10;99.90
1429;DHT22;708;51.442;7.016;2023-07-29T01:15:12;20.10;99.90
1429;DHT22;708;51.442;7.016;2023-07-29T01:17:46;20.10;99.90
1429;DHT22;708;51.442;7.016;2023-07-29T01:20:15;20.10;99.90
1429;DHT22;708;51.442;7.016;2023-07-29T01:22:44;20.10;99.90
1429;DHT22;708;51.442;7.016;2023-07-29T01:25:12;20.10;99.90
1429;DHT22;708;51.442;7.016;2023-07-29T01:27:39;20.20;99.90
1429;DHT22;708;51.442;7.016;2023-07-29T01:30:06;20.20;99.90
1429;DHT22;708;51.442;7.016;2023-07-29T01:32:38;20.30;99.90
1429;DHT22;708;51.442;7.016;2023-07-29T01:35:15;20.30;99.90
1429;DHT22;708;51.442;7.016;2023-07-29T01:37:45;20.40;99.90
1429;DHT22;708;51.442;7.016;2023-07-29T01:40:15;20.40;99.90
1429;DHT22;708;51.442;7.016;2023-07-29T01:42:43;20.50;99.90
1429;DHT22;708;51.442;7.016;2023-07-29T01:45:11;20.50;99.90
1429;DHT22;708;51.442;7.016;2023-07-29T01:47:37;20.50;99.90
1429;DHT22;708;51.442;7.016;2023-07-29T01:50:07;20.50;99.90
1429;DHT22;708;51.442;7.016;2023-07-29T01:52:34;20.60;99.90
1429;DHT22;708;51.442;7.016;2023-07-29T01:55:00;20.60;99.90
1429;DHT22;708;51.442;7.016;2023-07-29T01:57:29;20.60;99.90
1429;DHT22;708;51.442;7.016;2023-07-29T01:59:55;20.60;99.90
1429;DHT22;708;51.442;7.016;2023-07-29T02:02:22;20.70;99.90
1429;DHT22;708;51.442;7.016;2023-07-29T02:04:49;20.70;99.90
1429;DHT22;708;51.442;7.016;2023-07-29T02:07:17;20.70;99.90
1429;DHT22;708;51.442;7.016;2023-07-29T02:09:44;20.70;99.90
1429;DHT22;708;51.442;7.016;2023-07-29T02:12:11;20.70;99.90
1429;DHT22;708;51.442;7.016;2023-07-29T02:14:39;20.80;99.90
1429;DHT22;708;51.442;7.016;2023-07-29T02:17:06;20.80;99.90
1429;DHT22;708;51.442;7.016;2023-07-29T02:19:34;20.70;99.90
1429;DHT22;708;51.442;7.016;2023-07-29T02:22:01;20.80;99.90
1429;DHT22;708;51.442;7.016;2023-07-29T02:24:27;20.80;99.90
1429;DHT22;708;51.442;7.016;2023-07-29T02:26:54;20.80;99.90
1429;DHT22;708;51.442;7.016;2023-07-29T02:29:21;20.80;99.90
1429;DHT22;708;51.442;7.016;2023-07-29T02:31:49;20.80;99.90
1429;DHT22;708;51.442;7.016;2023-07-29T02:34:16;20.80;99.90
1429;DHT22;708;51.442;7.016;2023-07-29T02:36:42;20.90;99.90
1429;DHT22;708;51.442;7.016;2023-07-29T02:39:11;20.80;99.90
1429;DHT22;708;51.442;7.016;2023-07-29T02:41:37;20.90;99.90
1429;DHT22;708;51.442;7.016;2023-07-29T02:44:05;20.90;99.90
1429;DHT22;708;51.442;7.016;2023-07-29T02:46:32;20.90;99.90
1429;DHT22;708;51.442;7.016;2023-07-29T02:49:01;20.90;99.90
1429;DHT22;708;51.442;7.016;2023-07-29T02:51:28;20.90;99.90
1429;DHT22;708;51.442;7.016;2023-07-29T02:53:55;20.90;99.90
1429;DHT22;708;51.442;7.016;2023-07-29T02:56:22;20.90;99.90
1429;DHT22;708;51.442;7.016;2023-07-29T02:58:49;20.90;99.90
1429;DHT22;708;51.442;7.016;2023-07-29T03:01:17;20.90;99.90
1429;DHT22;708;51.442;7.016;2023-07-29T03:03:44;20.90;99.90
1429;DHT22;708;51.442;7.016;2023-07-29T03:06:14;20.90;99.90
1429;DHT22;708;51.442;7.016;2023-07-29T03:08:41;20.90;99.90
1429;DHT22;708;51.442;7.016;2023-07-29T03:11:09;20.90;99.90
1429;DHT22;708;51.442;7.016;2023-07-29T03:13:36;21.00;99.90
1429;DHT22;708;51.442;7.016;2023-07-29T03:16:06;21.00;99.90
1429;DHT22;708;51.442;7.016;2023-07-29T03:18:33;20.90;99.90
1429;DHT22;708;51.442;7.016;2023-07-29T03:21:00;21.00;99.90
1429;DHT22;708;51.442;7.016;2023-07-29T03:23:29;21.00;99.90
1429;DHT22;708;51.442;7.016;2023-07-29T03:25:57;21.00;99.90
1429;DHT22;708;51.442;7.016;2023-07-29T03:28:25;21.00;99.90
1429;DHT22;708;51.442;7.016;2023-07-29T03:30:52;20.90;99.90
1429;DHT22;708;51.442;7.016;2023-07-29T03:33:19;20.90;99.90
1429;DHT22;708;51.442;7.016;2023-07-29T03:35:46;20.90;99.90
1429;DHT22;708;51.442;7.016;2023-07-29T03:38:13;20.90;99.90
1429;DHT22;708;51.442;7.016;2023-07-29T03:40:41;20.90;99.90
1429;DHT22;708;51.442;7.016;2023-07-29T03:43:09;20.90;99.90
1429;DHT22;708;51.442;7.016;2023-07-29T03:45:36;20.90;99.90
1429;DHT22;708;51.442;7.016;2023-07-29T03:48:04;20.90;99.90
1429;DHT22;708;51.442;7.016;2023-07-29T03:50:33;20.90;99.90
1429;DHT22;708;51.442;7.016;2023-07-29T03:53:00;20.90;99.90
1429;DHT22;708;51.442;7.016;2023-07-29T03:55:27;20.90;99.90
1429;DHT22;708;51.442;7.016;2023-07-29T03:57:56;20.80;99.90
1429;DHT22;708;51.442;7.016;2023-07-29T04:00:23;20.80;99.90
1429;DHT22;708;51.442;7.016;2023-07-29T04:02:50;20.80;99.90
1429;DHT22;708;51.442;7.016;2023-07-29T04:05:17;20.80;99.90
1429;DHT22;708;51.442;7.016;2023-07-29T04:07:44;20.90;99.90
1429;DHT22;708;51.442;7.016;2023-07-29T04:10:11;20.90;99.90
1429;DHT22;708;51.442;7.016;2023-07-29T04:12:38;20.90;99.90
1429;DHT22;708;51.442;7.016;2023-07-29T04:15:07;20.90;99.90
1429;DHT22;708;51.442;7.016;2023-07-29T04:17:34;20.80;99.90
1429;DHT22;708;51.442;7.016;2023-07-29T04:20:01;20.90;99.90
1429;DHT22;708;51.442;7.016;2023-07-29T04:22:28;20.90;99.90
1429;DHT22;708;51.442;7.016;2023-07-29T04:24:55;20.90;99.90
1429;DHT22;708;51.442;7.016;2023-07-29T04:27:22;20.90;99.90
1429;DHT22;708;51.442;7.016;2023-07-29T04:29:48;20.90;99.90
1429;DHT22;708;51.442;7.016;2023-07-29T04:32:17;20.90;99.90
1429;DHT22;708;51.442;7.016;2023-07-29T04:34:44;20.90;99.90
1429;DHT22;708;51.442;7.016;2023-07-29T04:37:10;20.90;99.90
1429;DHT22;708;51.442;7.016;2023-07-29T04:39:37;21.00;99.90
1429;DHT22;708;51.442;7.016;2023-07-29T04:42:05;20.90;99.90
1429;DHT22;708;51.442;7.016;2023-07-29T04:44:31;20.90;99.90
1429;DHT22;708;51.442;7.016;2023-07-29T04:46:58;20.90;99.90
1429;DHT22;708;51.442;7.016;2023-07-29T04:49:25;20.80;99.90
1429;DHT22;708;51.442;7.016;2023-07-29T04:51:52;20.90;99.90
1429;DHT22;708;51.442;7.016;2023-07-29T04:54:19;20.90;99.90
1429;DHT22;708;51.442;7.016;2023-07-29T04:56:47;20.90;99.90
1429;DHT22;708;51.442;7.016;2023-07-29T04:59:13;20.90;99.90
1429;DHT22;708;51.442;7.016;2023-07-29T05:01:40;20.90;99.90
1429;DHT22;708;51.442;7.016;2023-07-29T05:04:08;21.00;99.90
1429;DHT22;708;51.442;7.016;2023-07-29T05:06:36;20.90;99.90
1429;DHT22;708;51.442;7.016;2023-07-29T05:09:12;21.00;99.90
1429;DHT22;708;51.442;7.016;2023-07-29T05:11:39;21.00;99.90
1429;DHT22;708;51.442;7.016;2023-07-29T05:14:06;21.00;99.90
1429;DHT22;708;51.442;7.016;2023-07-29T05:16:35;21.10;99.90
1429;DHT22;708;51.442;7.016;2023-07-29T05:19:01;21.20;99.90
1429;DHT22;708;51.442;7.016;2023-07-29T05:21:28;21.30;99.90
1429;DHT22;708;51.442;7.016;2023-07-29T05:23:56;21.40;99.90
1429;DHT22;708;51.442;7.016;2023-07-29T05:26:23;21.60;99.90
1429;DHT22;708;51.442;7.016;2023-07-29T05:28:50;21.80;96.60
1429;DHT22;708;51.442;7.016;2023-07-29T05:31:16;22.00;82.80
1429;DHT22;708;51.442;7.016;2023-07-29T05:33:43;22.10;40.00
1429;DHT22;708;51.442;7.016;2023-07-29T05:36:10;22.20;27.00
1429;DHT22;708;51.442;7.016;2023-07-29T05:38:37;22.40;10.70
1429;DHT22;708;51.442;7.016;2023-07-29T05:41:05;22.40;1.00
1429;DHT22;708;51.442;7.016;2023-07-29T05:43:32;22.40;1.00
1429;DHT22;708;51.442;7.016;2023-07-29T05:45:58;22.30;1.00
1429;DHT22;708;51.442;7.016;2023-07-29T05:48:25;22.20;1.00
1429;DHT22;708;51.442;7.016;2023-07-29T05:50:52;22.20;1.00
1429;DHT22;708;51.442;7.016;2023-07-29T05:53:19;22.10;1.00
1429;DHT22;708;51.442;7.016;2023-07-29T05:55:46;21.90;1.00
1429;DHT22;708;51.442;7.016;2023-07-29T05:58:14;21.80;6.50
1429;DHT22;708;51.442;7.016;2023-07-29T06:00:41;21.70;4.10
1429;DHT22;708;51.442;7.016;2023-07-29T06:03:08;21.70;7.90
1429;DHT22;708;51.442;7.016;2023-07-29T06:05:35;21.60;5.80
1429;DHT22;708;51.442;7.016;2023-07-29T06:08:02;21.60;3.00
1429;DHT22;708;51.442;7.016;2023-07-29T06:10:29;21.60;1.00
1429;DHT22;708;51.442;7.016;2023-07-29T06:12:56;21.50;1.00
1429;DHT22;708;51.442;7.016;2023-07-29T06:15:24;21.50;1.00
1429;DHT22;708;51.442;7.016;2023-07-29T06:17:51;21.50;1.00
1429;DHT22;708;51.442;7.016;2023-07-29T06:20:18;21.50;1.00
1429;DHT22;708;51.442;7.016;2023-07-29T06:22:44;21.60;1.00
1429;DHT22;708;51.442;7.016;2023-07-29T06:25:11;21.70;1.00
1429;DHT22;708;51.442;7.016;2023-07-29T06:27:38;21.90;1.00
1429;DHT22;708;51.442;7.016;2023-07-29T06:30:06;22.00;1.00
1429;DHT22;708;51.442;7.016;2023-07-29T06:32:34;22.20;1.00
1429;DHT22;708;51.442;7.016;2023-07-29T06:35:01;22.30;1.00
1429;DHT22;708;51.442;7.016;2023-07-29T06:37:28;22.40;1.00
1429;DHT22;708;51.442;7.016;2023-07-29T06:39:55;22.50;1.00
1429;DHT22;708;51.442;7.016;2023-07-29T06:42:22;22.60;1.00
1429;DHT22;708;51.442;7.016;2023-07-29T06:44:48;22.70;1.00
1429;DHT22;708;51.442;7.016;2023-07-29T06:47:15;23.00;1.00
1429;DHT22;708;51.442;7.016;2023-07-29T06:49:45;23.50;99.90
1429;DHT22;708;51.442;7.016;2023-07-29T06:52:12;24.10;99.90
1429;DHT22;708;51.442;7.016;2023-07-29T06:54:39;24.50;99.90
1429;DHT22;708;51.442;7.016;2023-07-29T06:57:09;24.60;1.00
1429;DHT22;708;51.442;7.016;2023-07-29T06:59:36;24.70;1.00
1429;DHT22;708;51.442;7.016;2023-07-29T07:02:03;24.90;99.90
1429;DHT22;708;51.442;7.016;2023-07-29T07:04:30;25.00;1.00
1429;DHT22;708;51.442;7.016;2023-07-29T07:06:59;25.30;99.90
1429;DHT22;708;51.442;7.016;2023-07-29T07:09:26;25.70;1.00
1429;DHT22;708;51.442;7.016;2023-07-29T07:14:19;27.70;1.00
1429;DHT22;708;51.442;7.016;2023-07-29T07:16:46;28.50;99.90
1429;DHT22;708;51.442;7.016;2023-07-29T07:21:40;29.20;1.00
1429;DHT22;708;51.442;7.016;2023-07-29T07:24:08;31.30;99.90
1429;DHT22;708;51.442;7.016;2023-07-29T07:26:35;31.40;99.90
1429;DHT22;708;51.442;7.016;2023-07-29T07:29:02;32.40;99.90
1429;DHT22;708;51.442;7.016;2023-07-29T07:31:28;33.70;99.90
1429;DHT22;708;51.442;7.016;2023-07-29T07:33:55;35.20;99.90
1429;DHT22;708;51.442;7.016;2023-07-29T07:36:22;35.80;99.90
1429;DHT22;708;51.442;7.016;2023-07-29T07:38:48;35.50;99.90
1429;DHT22;708;51.442;7.016;2023-07-29T07:41:16;35.30;99.90
1429;DHT22;708;51.442;7.016;2023-07-29T07:43:43;35.50;99.90
1429;DHT22;708;51.442;7.016;2023-07-29T07:46:10;36.00;99.10
1429;DHT22;708;51.442;7.016;2023-07-29T07:48:37;36.60;96.50
1429;DHT22;708;51.442;7.016;2023-07-29T07:51:10;37.40;93.40
1429;DHT22;708;51.442;7.016;2023-07-29T07:53:37;37.90;89.20
1429;DHT22;708;51.442;7.016;2023-07-29T07:56:04;37.90;80.50
1429;DHT22;708;51.442;7.016;2023-07-29T07:58:32;37.70;73.80
1429;DHT22;708;51.442;7.016;2023-07-29T08:01:02;37.00;66.50
1429;DHT22;708;51.442;7.016;2023-07-29T08:03:30;35.50;61.90
1429;DHT22;708;51.442;7.016;2023-07-29T08:05:56;34.30;60.90
1429;DHT22;708;51.442;7.016;2023-07-29T08:08:23;33.80;61.40
1429;DHT22;708;51.442;7.016;2023-07-29T08:10:50;34.30;64.10
1429;DHT22;708;51.442;7.016;2023-07-29T08:13:17;34.10;63.40
1429;DHT22;708;51.442;7.016;2023-07-29T08:15:47;33.70;65.40
1429;DHT22;708;51.442;7.016;2023-07-29T08:18:14;33.90;68.10
1429;DHT22;708;51.442;7.016;2023-07-29T08:20:41;33.60;67.80
1429;DHT22;708;51.442;7.016;2023-07-29T08:23:09;33.30;68.20
1429;DHT22;708;51.442;7.016;2023-07-29T08:25:36;32.60;71.20
1429;DHT22;708;51.442;7.016;2023-07-29T08:28:03;33.10;68.70
1429;DHT22;708;51.442;7.016;2023-07-29T08:30:30;33.40;81.40
1429;DHT22;708;51.442;7.016;2023-07-29T08:32:58;34.60;79.30
1429;DHT22;708;51.442;7.016;2023-07-29T08:35:28;35.90;73.20
1429;DHT22;708;51.442;7.016;2023-07-29T08:37:55;37.10;63.90
1429;DHT22;708;51.442;7.016;2023-07-29T08:40:25;37.00;56.10
1429;DHT22;708;51.442;7.016;2023-07-29T08:42:55;36.70;52.70
1429;DHT22;708;51.442;7.016;2023-07-29T08:45:24;37.20;49.60
1429;DHT22;708;51.442;7.016;2023-07-29T08:47:54;37.40;46.60
1429;DHT22;708;51.442;7.016;2023-07-29T08:50:25;37.40;54.00
1429;DHT22;708;51.442;7.016;2023-07-29T08:52:52;37.00;41.20
1429;DHT22;708;51.442;7.016;2023-07-29T08:55:19;36.90;41.20
1429;DHT22;708;51.442;7.016;2023-07-29T08:57:46;36.90;39.50
1429;DHT22;708;51.442;7.016;2023-07-29T09:00:13;36.40;38.00
1429;DHT22;708;51.442;7.016;2023-07-29T09:02:40;35.70;38.20
1429;DHT22;708;51.442;7.016;2023-07-29T09:05:08;35.30;37.30
1429;DHT22;708;51.442;7.016;2023-07-29T09:07:36;35.60;39.20
1429;DHT22;708;51.442;7.016;2023-07-29T09:10:04;36.00;38.70
1429;DHT22;708;51.442;7.016;2023-07-29T09:12:31;35.90;37.70
1429;DHT22;708;51.442;7.016;2023-07-29T09:14:58;35.60;36.10
1429;DHT22;708;51.442;7.016;2023-07-29T09:17:25;35.50;35.70
1429;DHT22;708;51.442;7.016;2023-07-29T09:19:52;36.00;35.60
1429;DHT22;708;51.442;7.016;2023-07-29T09:22:19;35.90;34.40
1429;DHT22;708;51.442;7.016;2023-07-29T09:24:48;35.80;33.40
1429;DHT22;708;51.442;7.016;2023-07-29T09:27:24;36.20;32.30
1429;DHT22;708;51.442;7.016;2023-07-29T09:29:51;36.50;32.50
1429;DHT22;708;51.442;7.016;2023-07-29T09:32:18;37.00;30.10
1429;DHT22;708;51.442;7.016;2023-07-29T09:34:46;37.00;28.60
1429;DHT22;708;51.442;7.016;2023-07-29T09:37:20;35.50;19.70
1429;DHT22;708;51.442;7.016;2023-07-29T09:39:49;35.50;26.20
1429;DHT22;708;51.442;7.016;2023-07-29T09:42:18;34.90;26.10
1429;DHT22;708;51.442;7.016;2023-07-29T09:44:45;33.70;20.30
1429;DHT22;708;51.442;7.016;2023-07-29T09:47:19;33.30;27.10
1429;DHT22;708;51.442;7.016;2023-07-29T09:49:46;32.70;28.80
1429;DHT22;708;51.442;7.016;2023-07-29T09:52:15;32.10;32.40
1429;DHT22;708;51.442;7.016;2023-07-29T09:54:42;31.40;42.30
1429;DHT22;708;51.442;7.016;2023-07-29T09:57:12;30.90;58.20
1429;DHT22;708;51.442;7.016;2023-07-29T09:59:40;30.50;80.50
1429;DHT22;708;51.442;7.016;2023-07-29T10:02:12;30.00;99.90
1429;DHT22;708;51.442;7.016;2023-07-29T10:04:45;29.60;99.90
1429;DHT22;708;51.442;7.016;2023-07-29T10:07:19;29.60;99.90
1429;DHT22;708;51.442;7.016;2023-07-29T10:09:53;29.40;99.90
1429;DHT22;708;51.442;7.016;2023-07-29T10:12:43;29.20;99.90
1429;DHT22;708;51.442;7.016;2023-07-29T10:15:18;29.10;99.90
1429;DHT22;708;51.442;7.016;2023-07-29T10:17:53;29.70;99.90
1429;DHT22;708;51.442;7.016;2023-07-29T10:20:27;31.00;99.90
1429;DHT22;708;51.442;7.016;2023-07-29T10:23:03;32.20;99.90
1429;DHT22;708;51.442;7.016;2023-07-29T10:25:49;33.20;99.90
1429;DHT22;708;51.442;7.016;2023-07-29T10:28:26;34.00;95.70
1429;DHT22;708;51.442;7.016;2023-07-29T10:31:05;34.50;75.90
1429;DHT22;708;51.442;7.016;2023-07-29T10:33:46;35.00;60.50
1429;DHT22;708;51.442;7.016;2023-07-29T10:40:28;35.40;45.00
1429;DHT22;708;51.442;7.016;2023-07-29T10:44:00;35.50;37.30
1429;DHT22;708;51.442;7.016;2023-07-29T10:46:36;34.60;32.70
1429;DHT22;708;51.442;7.016;2023-07-29T10:49:14;33.40;33.60
1429;DHT22;708;51.442;7.016;2023-07-29T10:51:59;32.00;36.70
1429;DHT22;708;51.442;7.016;2023-07-29T10:57:30;30.00;99.90
1429;DHT22;708;51.442;7.016;2023-07-29T11:00:19;29.30;99.90
1429;DHT22;708;51.442;7.016;2023-07-29T11:03:02;29.20;99.90
1429;DHT22;708;51.442;7.016;2023-07-29T11:05:50;29.20;99.90
1429;DHT22;708;51.442;7.016;2023-07-29T11:08:41;29.10;99.90
1429;DHT22;708;51.442;7.016;2023-07-29T11:11:19;29.20;99.90
1429;DHT22;708;51.442;7.016;2023-07-29T11:13:46;29.30;99.90
1429;DHT22;708;51.442;7.016;2023-07-29T11:16:21;29.50;99.90
1429;DHT22;708;51.442;7.016;2023-07-29T11:18:58;29.40;99.90
1429;DHT22;708;51.442;7.016;2023-07-29T11:21:33;29.40;99.90
1429;DHT22;708;51.442;7.016;2023-07-29T11:24:09;29.30;99.90
1429;DHT22;708;51.442;7.016;2023-07-29T11:26:46;29.30;99.90
1429;DHT22;708;51.442;7.016;2023-07-29T11:29:18;29.10;99.90
1429;DHT22;708;51.442;7.016;2023-07-29T11:31:49;29.10;99.90
1429;DHT22;708;51.442;7.016;2023-07-29T11:34:31;29.10;99.90
1429;DHT22;708;51.442;7.016;2023-07-29T11:37:02;29.20;99.90
1429;DHT22;708;51.442;7.016;2023-07-29T11:39:34;29.30;99.90
1429;DHT22;708;51.442;7.016;2023-07-29T11:42:14;29.00;99.90
1429;DHT22;708;51.442;7.016;2023-07-29T11:45:05;28.90;99.90
1429;DHT22;708;51.442;7.016;2023-07-29T11:47:49;28.90;99.90
1429;DHT22;708;51.442;7.016;2023-07-29T11:50:38;28.60;99.90
1429;DHT22;708;51.442;7.016;2023-07-29T11:53:08;28.30;99.90
1429;DHT22;708;51.442;7.016;2023-07-29T11:55:41;27.90;1.00
1429;DHT22;708;51.442;7.016;2023-07-29T11:58:10;27.80;89.10
1429;DHT22;708;51.442;7.016;2023-07-29T12:00:47;27.90;99.90
1429;DHT22;708;51.442;7.016;2023-07-29T12:03:26;27.90;1.00
1429;DHT22;708;51.442;7.016;2023-07-29T12:05:58;27.90;97.20
1429;DHT22;708;51.442;7.016;2023-07-29T12:08:48;28.00;52.30
1429;DHT22;708;51.442;7.016;2023-07-29T12:11:19;28.10;88.00
1429;DHT22;708;51.442;7.016;2023-07-29T12:13:49;28.10;8.70
1429;DHT22;708;51.442;7.016;2023-07-29T12:16:24;28.10;1.00
1429;DHT22;708;51.442;7.016;2023-07-29T12:18:58;28.10;1.00
1429;DHT22;708;51.442;7.016;2023-07-29T12:21:30;28.10;1.00
1429;DHT22;708;51.442;7.016;2023-07-29T12:24:05;28.10;1.00
1429;DHT22;708;51.442;7.016;2023-07-29T12:26:43;28.10;1.00
1429;DHT22;708;51.442;7.016;2023-07-29T12:29:15;28.30;1.00
1429;DHT22;708;51.442;7.016;2023-07-29T12:31:43;28.40;99.90
1429;DHT22;708;51.442;7.016;2023-07-29T12:34:24;28.50;99.90
1429;DHT22;708;51.442;7.016;2023-07-29T12:36:53;28.50;99.90
1429;DHT22;708;51.442;7.016;2023-07-29T12:39:26;28.70;99.90
1429;DHT22;708;51.442;7.016;2023-07-29T12:42:01;29.00;99.90
1429;DHT22;708;51.442;7.016;2023-07-29T12:44:31;29.00;99.90
1429;DHT22;708;51.442;7.016;2023-07-29T12:47:08;29.00;99.90
1429;DHT22;708;51.442;7.016;2023-07-29T12:49:50;28.90;99.90
1429;DHT22;708;51.442;7.016;2023-07-29T12:52:43;28.80;99.90
1429;DHT22;708;51.442;7.016;2023-07-29T12:55:16;28.80;99.90
1429;DHT22;708;51.442;7.016;2023-07-29T12:57:56;28.70;99.90
1429;DHT22;708;51.442;7.016;2023-07-29T13:00:33;28.80;99.90
1429;DHT22;708;51.442;7.016;2023-07-29T13:03:05;28.80;99.90
1429;DHT22;708;51.442;7.016;2023-07-29T13:05:37;28.80;99.90
1429;DHT22;708;51.442;7.016;2023-07-29T13:08:09;28.80;99.90
1429;DHT22;708;51.442;7.016;2023-07-29T13:10:59;29.00;99.90
1429;DHT22;708;51.442;7.016;2023-07-29T13:13:47;29.00;99.90
1429;DHT22;708;51.442;7.016;2023-07-29T13:16:16;29.10;99.90
1429;DHT22;708;51.442;7.016;2023-07-29T13:18:50;29.00;99.90
1429;DHT22;708;51.442;7.016;2023-07-29T13:21:30;28.80;99.90
1429;DHT22;708;51.442;7.016;2023-07-29T13:24:10;28.90;99.90
1429;DHT22;708;51.442;7.016;2023-07-29T13:26:47;29.20;99.90
1429;DHT22;708;51.442;7.016;2023-07-29T13:29:21;29.30;99.90
1429;DHT22;708;51.442;7.016;2023-07-29T13:31:58;29.20;99.90
1429;DHT22;708;51.442;7.016;2023-07-29T13:34:44;29.20;99.90
1429;DHT22;708;51.442;7.016;2023-07-29T13:37:39;29.10;99.90
1429;DHT22;708;51.442;7.016;2023-07-29T13:40:13;28.80;99.90
1429;DHT22;708;51.442;7.016;2023-07-29T13:42:50;28.60;99.90
1429;DHT22;708;51.442;7.016;2023-07-29T13:45:24;28.20;99.90
1429;DHT22;708;51.442;7.016;2023-07-29T13:48:00;27.90;99.90
1429;DHT22;708;51.442;7.016;2023-07-29T13:50:47;27.50;1.00
1429;DHT22;708;51.442;7.016;2023-07-29T13:53:33;27.20;1.00
1429;DHT22;708;51.442;7.016;2023-07-29T13:56:04;27.00;99.90
1429;DHT22;708;51.442;7.016;2023-07-29T13:58:34;26.80;1.00
1429;DHT22;708;51.442;7.016;2023-07-29T14:01:02;26.50;99.90
1429;DHT22;708;51.442;7.016;2023-07-29T14:03:53;26.20;1.00
1429;DHT22;708;51.442;7.016;2023-07-29T14:06:25;25.90;99.90
1429;DHT22;708;51.442;7.016;2023-07-29T14:09:07;25.60;1.00
1429;DHT22;708;51.442;7.016;2023-07-29T14:11:56;25.20;99.90
1429;DHT22;708;51.442;7.016;2023-07-29T14:14:40;24.60;99.90
1429;DHT22;708;51.442;7.016;2023-07-29T14:17:20;24.10;1.00
1429;DHT22;708;51.442;7.016;2023-07-29T14:20:09;23.80;1.00
1429;DHT22;708;51.442;7.016;2023-07-29T14:22:36;23.60;1.00
1429;DHT22;708;51.442;7.016;2023-07-29T14:25:21;23.50;1.00
1429;DHT22;708;51.442;7.016;2023-07-29T14:27:51;23.50;1.00
1429;DHT22;708;51.442;7.016;2023-07-29T14:30:20;23.60;1.00
1429;DHT22;708;51.442;7.016;2023-07-29T14:32:56;23.70;1.00
1429;DHT22;708;51.442;7.016;2023-07-29T14:35:42;23.80;1.00
1429;DHT22;708;51.442;7.016;2023-07-29T14:38:29;24.10;1.00
1429;DHT22;708;51.442;7.016;2023-07-29T14:41:13;24.60;1.00
1429;DHT22;708;51.442;7.016;2023-07-29T14:43:47;25.10;99.90
1429;DHT22;708;51.442;7.016;2023-07-29T14:46:31;25.50;99.90
1429;DHT22;708;51.442;7.016;2023-07-29T14:49:13;25.80;99.90
1429;DHT22;708;51.442;7.016;2023-07-29T14:52:05;25.90;99.90
1429;DHT22;708;51.442;7.016;2023-07-29T14:54:47;25.80;99.90
1429;DHT22;708;51.442;7.016;2023-07-29T14:57:22;25.70;99.90
1429;DHT22;708;51.442;7.016;2023-07-29T14:59:48;25.40;99.90
1429;DHT22;708;51.442;7.016;2023-07-29T15:02:15;25.20;99.90
1429;DHT22;708;51.442;7.016;2023-07-29T15:04:42;25.00;99.90
1429;DHT22;708;51.442;7.016;2023-07-29T15:07:09;24.80;99.90
1429;DHT22;708;51.442;7.016;2023-07-29T15:09:36;24.60;1.00
1429;DHT22;708;51.442;7.016;2023-07-29T15:12:03;24.50;1.00
1429;DHT22;708;51.442;7.016;2023-07-29T15:14:34;24.30;1.00
1429;DHT22;708;51.442;7.016;2023-07-29T15:17:00;24.20;1.00
1429;DHT22;708;51.442;7.016;2023-07-29T15:19:27;24.20;1.00
1429;DHT22;708;51.442;7.016;2023-07-29T15:21:57;24.10;1.00
1429;DHT22;708;51.442;7.016;2023-07-29T15:24:23;24.10;1.00
1429;DHT22;708;51.442;7.016;2023-07-29T15:26:50;24.10;1.00
1429;DHT22;708;51.442;7.016;2023-07-29T15:29:17;24.20;1.00
1429;DHT22;708;51.442;7.016;2023-07-29T15:31:50;24.20;1.00
1429;DHT22;708;51.442;7.016;2023-07-29T15:34:23;24.20;1.00
1429;DHT22;708;51.442;7.016;2023-07-29T15:36:51;24.50;1.00
1429;DHT22;708;51.442;7.016;2023-07-29T15:39:17;24.80;1.00
1429;DHT22;708;51.442;7.016;2023-07-29T15:41:44;25.10;1.00
1429;DHT22;708;51.442;7.016;2023-07-29T15:44:11;25.30;1.00
1429;DHT22;708;51.442;7.016;2023-07-29T15:46:37;25.40;1.00
1429;DHT22;708;51.442;7.016;2023-07-29T15:49:05;25.40;99.90
1429;DHT22;708;51.442;7.016;2023-07-29T15:51:32;25.50;99.90
1429;DHT22;708;51.442;7.016;2023-07-29T15:53:59;25.60;99.90
1429;DHT22;708;51.442;7.016;2023-07-29T15:56:27;25.70;99.90
1429;DHT22;708;51.442;7.016;2023-07-29T15:58:54;25.80;99.90
1429;DHT22;708;51.442;7.016;2023-07-29T16:01:23;25.90;99.90
1429;DHT22;708;51.442;7.016;2023-07-29T16:03:49;25.90;99.90
1429;DHT22;708;51.442;7.016;2023-07-29T16:06:18;25.80;99.90
1429;DHT22;708;51.442;7.016;2023-07-29T16:08:44;25.70;99.90
1429;DHT22;708;51.442;7.016;2023-07-29T16:11:14;25.50;99.90
1429;DHT22;708;51.442;7.016;2023-07-29T16:13:41;25.40;99.90
1429;DHT22;708;51.442;7.016;2023-07-29T16:16:07;25.30;99.90
1429;DHT22;708;51.442;7.016;2023-07-29T16:18:34;25.20;99.90
1429;DHT22;708;51.442;7.016;2023-07-29T16:21:01;25.00;99.90
1429;DHT22;708;51.442;7.016;2023-07-29T16:23:29;24.90;99.90
1429;DHT22;708;51.442;7.016;2023-07-29T16:25:57;24.70;99.90
1429;DHT22;708;51.442;7.016;2023-07-29T16:28:24;24.60;99.90
1429;DHT22;708;51.442;7.016;2023-07-29T16:30:50;24.60;99.90
1429;DHT22;708;51.442;7.016;2023-07-29T16:33:18;24.50;99.90
1429;DHT22;708;51.442;7.016;2023-07-29T16:35:44;24.40;99.90
1429;DHT22;708;51.442;7.016;2023-07-29T16:38:11;24.50;99.90
1429;DHT22;708;51.442;7.016;2023-07-29T16:40:39;24.50;99.90
1429;DHT22;708;51.442;7.016;2023-07-29T16:43:06;24.40;99.90
1429;DHT22;708;51.442;7.016;2023-07-29T16:45:33;24.40;99.90
1429;DHT22;708;51.442;7.016;2023-07-29T16:48:00;24.50;99.90
1429;DHT22;708;51.442;7.016;2023-07-29T16:50:26;24.60;99.90
1429;DHT22;708;51.442;7.016;2023-07-29T16:52:53;24.50;99.90
1429;DHT22;708;51.442;7.016;2023-07-29T16:55:22;24.50;99.90